Time;durP1;ratioP1;P1;durP2;ratioP2;P2;SDS_P1;SDS_P2;PMS_P1;PMS_P2;Temp;Humidity;BMP_temperature;BMP_pressure;BME280_temperature;BME280_humidity;BME280_pressure;Samples;Min_cycle;Max_cycle;Signal;HPM_P1;HPM_P2
2022/03/31 00:01:40;;;;;;;0.10;0.10;;;;;;;20.94;34.92;99657.69;5125451;28;20051;-36
2022/03/31 00:04:06;;;;;;;0.20;0.20;;;;;;;20.94;34.82;99647.47;5126942;28;20039;-34
2022/03/31 00:06:31;;;;;;;0.20;0.20;;;;;;;20.93;35.08;99656.88;5125128;28;20054;-34
2022/03/31 00:08:57;;;;;;;0.10;0.10;;;;;;;20.93;35.16;99648.59;5127343;28;20039;-32
2022/03/31 00:11:23;;;;;;;0.10;0.10;;;;;;;20.93;34.88;99645.00;5121465;28;20058;-35
2022/03/31 00:13:49;;;;;;;0.10;0.10;;;;;;;20.93;35.02;99645.81;5127364;28;20063;-34
2022/03/31 00:16:14;;;;;;;0.10;0.10;;;;;;;20.93;34.67;99645.81;5127516;28;20481;-35
2022/03/31 00:18:40;;;;;;;0.20;0.20;;;;;;;20.92;35.40;99641.44;5125458;28;20095;-34
2022/03/31 00:21:06;;;;;;;0.10;0.10;;;;;;;20.92;34.79;99641.44;5126076;28;20043;-34
2022/03/31 00:23:36;;;;;;;0.20;0.20;;;;;;;20.92;34.89;99643.38;5128039;28;20478;-33
2022/03/31 00:26:03;;;;;;;0.10;0.10;;;;;;;20.92;34.68;99638.66;5098830;28;20402;-34
2022/03/31 00:28:29;;;;;;;0.10;0.10;;;;;;;20.92;34.72;99637.84;5105019;28;20117;-34
2022/03/31 00:30:55;;;;;;;0.10;0.10;;;;;;;20.92;34.89;99632.31;5129327;28;20127;-34
2022/03/31 00:33:21;;;;;;;0.10;0.10;;;;;;;20.92;34.86;99637.84;5128700;28;20049;-35
2022/03/31 00:35:46;;;;;;;0.10;0.10;;;;;;;20.93;34.95;99633.94;5110996;28;20075;-36
2022/03/31 00:38:12;;;;;;;0.20;0.20;;;;;;;20.92;34.86;99629.53;5129925;28;21118;-35
2022/03/31 00:40:39;;;;;;;0.10;0.10;;;;;;;20.90;34.88;99624.34;5130043;27;20049;-33
2022/03/31 00:43:04;;;;;;;0.10;0.10;;;;;;;20.90;34.89;99629.06;5095406;28;20118;-34
2022/03/31 00:45:34;;;;;;;0.20;0.20;;;;;;;20.91;34.69;99628.72;5130129;28;20535;-32
2022/03/31 00:48:00;;;;;;;0.13;0.13;;;;;;;20.90;35.10;99618.81;5129526;28;20054;-34
2022/03/31 00:50:27;;;;;;;0.10;0.10;;;;;;;20.91;34.93;99627.91;5110097;28;20142;-33
2022/03/31 00:52:52;;;;;;;0.10;0.10;;;;;;;20.91;35.02;99616.84;5112292;28;20050;-32
2022/03/31 00:55:38;;;;;;;0.10;0.10;;;;;;;20.90;35.09;99616.03;5115352;28;20054;-33
2022/03/31 00:58:05;;;;;;;0.10;0.10;;;;;;;20.90;35.05;99610.50;5131502;28;20039;-35
2022/03/31 01:00:31;;;;;;;0.10;0.10;;;;;;;20.91;34.83;99619.63;5127640;28;20061;-34
2022/03/31 01:02:57;;;;;;;0.10;0.10;;;;;;;20.90;34.88;99616.03;5129410;28;20047;-32
2022/03/31 01:05:23;;;;;;;0.10;0.10;;;;;;;20.91;35.02;99617.66;5130061;28;20295;-34
2022/03/31 01:07:48;;;;;;;0.10;0.10;;;;;;;20.91;34.86;99605.78;5125239;28;20050;-36
2022/03/31 01:10:14;;;;;;;0.10;0.10;;;;;;;20.90;35.17;99606.94;5128559;28;20082;-34
2022/03/31 01:12:40;;;;;;;0.17;0.17;;;;;;;20.90;34.88;99599.44;5130606;28;20043;-35
2022/03/31 01:17:51;;;;;;;0.10;0.10;;;;;;;20.90;34.96;99593.91;5175733;27;20265;-30
2022/03/31 01:20:20;;;;;;;0.10;0.10;;;;;;;20.90;34.87;99593.09;5165072;27;20043;-32
2022/03/31 01:22:46;;;;;;;0.10;0.10;;;;;;;20.90;35.12;99591.13;5166252;27;20161;-35
2022/03/31 01:25:11;;;;;;;0.10;0.10;;;;;;;20.89;34.97;99597.78;5148433;27;20492;-31
2022/03/31 01:27:40;;;;;;;0.10;0.10;;;;;;;20.89;34.86;99588.69;5166321;27;20046;-32
2022/03/31 01:30:07;;;;;;;0.17;0.17;;;;;;;20.89;34.98;99597.78;5130119;27;20465;-33
2022/03/31 01:32:33;;;;;;;0.10;0.10;;;;;;;20.90;34.92;99587.56;5147654;27;20500;-37
2022/03/31 01:34:59;;;;;;;0.10;0.10;;;;;;;20.89;35.12;99592.25;5166149;27;20524;-32
2022/03/31 01:37:24;;;;;;;0.10;0.10;;;;;;;20.88;35.13;99584.28;5159452;27;20039;-30
2022/03/31 01:39:50;;;;;;;0.10;0.10;;;;;;;20.89;35.12;99583.13;5154518;27;20099;-32
2022/03/31 01:42:16;;;;;;;0.10;0.10;;;;;;;20.90;34.76;99587.56;5153949;27;20039;-34
2022/03/31 01:44:41;;;;;;;0.10;0.10;;;;;;;20.87;34.98;99580.72;5154198;27;20039;-32
2022/03/31 01:47:08;;;;;;;0.10;0.10;;;;;;;20.89;35.07;99585.91;5157526;27;20067;-33
2022/03/31 01:49:36;;;;;;;0.10;0.10;;;;;;;20.88;35.18;99582.31;5115263;27;20050;-35
2022/03/31 01:52:03;;;;;;;0.10;0.10;;;;;;;20.87;34.98;99566.88;5134879;27;20086;-34
2022/03/31 01:54:30;;;;;;;0.10;0.10;;;;;;;20.88;35.32;99573.22;5119943;27;20131;-37
2022/03/31 01:56:55;;;;;;;0.10;0.10;;;;;;;20.88;35.19;99568.50;5138169;27;20530;-35
2022/03/31 01:59:22;;;;;;;0.10;0.10;;;;;;;20.88;35.01;99565.72;5153186;27;20039;-34
2022/03/31 02:01:48;;;;;;;0.10;0.10;;;;;;;20.88;35.13;99560.19;5152296;27;20077;-37
2022/03/31 02:04:15;;;;;;;0.20;0.20;;;;;;;20.87;34.95;99560.53;5157149;27;20469;-35
2022/03/31 02:06:41;;;;;;;0.10;0.10;;;;;;;20.87;34.91;99557.75;5152383;27;20105;-36
2022/03/31 02:09:07;;;;;;;0.10;0.10;;;;;;;20.87;35.16;99560.53;5149846;27;20462;-33
2022/03/31 02:11:33;;;;;;;0.13;0.13;;;;;;;20.86;34.97;99550.59;5150119;27;20462;-37
2022/03/31 02:13:59;;;;;;;0.13;0.13;;;;;;;20.88;35.11;99542.78;5154613;27;20421;-35
2022/03/31 02:16:24;;;;;;;0.20;0.20;;;;;;;20.84;35.04;99539.84;5133885;27;20046;-35
2022/03/31 02:18:50;;;;;;;0.10;0.10;;;;;;;20.86;35.05;99545.88;5131813;27;20489;-33
2022/03/31 02:21:16;;;;;;;0.10;0.10;;;;;;;20.85;35.15;99547.00;5148266;27;20416;-36
2022/03/31 02:23:42;;;;;;;0.10;0.10;;;;;;;20.87;34.98;99541.16;5159662;27;20461;-33
2022/03/31 02:26:07;;;;;;;0.20;0.20;;;;;;;20.87;35.21;99541.16;5146201;27;20121;-34
2022/03/31 02:28:33;;;;;;;0.10;0.10;;;;;;;20.86;35.00;99542.31;5146280;27;20139;-36
2022/03/31 02:30:59;;;;;;;0.20;0.20;;;;;;;20.86;35.14;99534.00;5137264;27;20043;-34
2022/03/31 02:33:24;;;;;;;0.10;0.10;;;;;;;20.86;35.02;99537.56;5138054;27;20076;-35
2022/03/31 02:35:50;;;;;;;0.10;0.10;;;;;;;20.86;34.92;99536.78;5136577;27;20058;-35
2022/03/31 02:38:16;;;;;;;0.10;0.10;;;;;;;20.86;34.96;99528.47;5143124;27;20089;-34
2022/03/31 02:40:42;;;;;;;0.10;0.10;;;;;;;20.87;35.08;99524.56;5142900;27;20466;-33
2022/03/31 02:43:10;;;;;;;0.10;0.10;;;;;;;20.86;34.87;99525.69;5141111;27;20499;-35
2022/03/31 02:45:36;;;;;;;0.13;0.13;;;;;;;20.86;34.96;99522.94;5123272;27;20085;-35
2022/03/31 02:48:01;;;;;;;0.10;0.10;;;;;;;20.84;34.92;99512.16;5141474;27;20047;-36
2022/03/31 02:50:27;;;;;;;0.20;0.20;;;;;;;20.84;35.03;99514.94;5139206;27;20393;-35
2022/03/31 02:55:38;;;;;;;0.10;0.10;;;;;;;20.84;35.10;99512.16;5126696;27;20118;-34
2022/03/31 02:58:04;;;;;;;0.10;0.10;;;;;;;20.84;34.99;99511.38;5146235;27;20381;-34
2022/03/31 03:00:33;;;;;;;0.10;0.10;;;;;;;20.84;34.99;99509.41;5119875;27;20039;-35
2022/03/31 03:02:59;;;;;;;;;;;;;;;20.84;35.04;99516.91;5143982;27;20039;-35
2022/03/31 03:05:25;;;;;;;0.20;0.20;;;;;;;20.83;35.23;99515.28;5126529;27;19966;-34
2022/03/31 03:07:51;;;;;;;0.10;0.10;;;;;;;20.83;35.30;99513.31;5105017;27;20043;-39
2022/03/31 03:10:16;;;;;;;0.20;0.20;;;;;;;20.83;35.16;99512.50;5142973;27;20330;-36
2022/03/31 03:12:42;;;;;;;0.20;0.20;;;;;;;20.83;35.12;99513.31;5118978;27;20035;-33
2022/03/31 03:15:09;;;;;;;0.10;0.10;;;;;;;20.83;35.04;99498.69;5138842;27;20510;-33
2022/03/31 03:17:35;;;;;;;0.20;0.20;;;;;;;20.84;35.29;99509.41;5117815;27;20540;-35
2022/03/31 03:20:01;;;;;;;0.10;0.10;;;;;;;20.82;35.15;99502.59;5118921;27;20138;-34
2022/03/31 03:22:27;;;;;;;0.10;0.10;;;;;;;20.83;35.11;99506.97;5118061;27;20043;-36
2022/03/31 03:24:52;;;;;;;0.10;0.10;;;;;;;20.84;34.98;99495.56;5136793;27;20516;-35
2022/03/31 03:27:18;;;;;;;0.20;0.20;;;;;;;20.83;34.98;99498.69;5127476;27;20047;-37
2022/03/31 03:29:47;;;;;;;0.10;0.10;;;;;;;20.83;35.02;99495.91;5137419;27;20454;-34
2022/03/31 03:32:14;;;;;;;0.10;0.10;;;;;;;20.82;35.13;99503.41;5135671;27;20070;-33
2022/03/31 03:34:40;;;;;;;0.13;0.13;;;;;;;20.83;35.33;99504.22;5139027;27;20067;-35
2022/03/31 03:37:06;;;;;;;0.10;0.10;;;;;;;20.82;34.94;99497.06;5136419;27;20503;-33
2022/03/31 03:39:34;;;;;;;0.10;0.10;;;;;;;20.82;35.11;99500.63;5116438;27;20081;-33
2022/03/31 03:42:01;;;;;;;0.10;0.10;;;;;;;20.81;35.23;99490.69;5123517;27;20074;-35
2022/03/31 03:44:26;;;;;;;0.20;0.20;;;;;;;20.82;35.23;99497.88;5121731;27;20712;-38
2022/03/31 03:46:53;;;;;;;0.10;0.10;;;;;;;20.82;35.09;99497.88;5123163;27;20047;-35
2022/03/31 03:49:19;;;;;;;0.20;0.20;;;;;;;20.83;35.15;99493.94;5115109;27;20145;-35
2022/03/31 03:51:45;;;;;;;0.20;0.20;;;;;;;20.81;35.17;99496.22;5123382;27;20075;-34
2022/03/31 03:54:11;;;;;;;0.20;0.20;;;;;;;20.81;35.10;99493.44;5142966;27;20137;-34
2022/03/31 03:56:37;;;;;;;0.20;0.20;;;;;;;20.81;35.27;99501.75;5140109;27;20081;-33
2022/03/31 03:59:04;;;;;;;0.13;0.13;;;;;;;20.80;35.22;99495.41;5135309;27;20096;-36
2022/03/31 04:01:30;;;;;;;0.20;0.20;;;;;;;20.81;35.34;99498.97;5137265;27;20081;-34
2022/03/31 04:03:57;;;;;;;0.20;0.20;;;;;;;20.80;34.93;99489.88;5116994;27;20047;-34
2022/03/31 04:06:23;;;;;;;0.10;0.10;;;;;;;20.82;35.27;99494.28;5143212;27;20485;-33
2022/03/31 04:08:49;;;;;;;0.20;0.20;;;;;;;20.80;34.93;99498.16;5117838;27;20077;-34
2022/03/31 04:11:14;;;;;;;0.10;0.10;;;;;;;20.79;34.87;99488.25;5115617;27;20067;-35
2022/03/31 04:13:40;;;;;;;0.20;0.20;;;;;;;20.81;35.17;99493.44;5139637;27;20100;-35
2022/03/31 04:16:06;;;;;;;0.10;0.10;;;;;;;20.79;35.31;99479.13;5137325;27;20397;-33
2022/03/31 04:18:32;;;;;;;0.20;0.20;;;;;;;20.79;35.28;99487.44;5134649;27;20043;-35
2022/03/31 04:21:01;;;;;;;0.20;0.20;;;;;;;20.79;35.27;99485.47;5143953;27;20039;-37
2022/03/31 04:23:26;;;;;;;0.20;0.20;;;;;;;20.79;35.06;99484.66;5133362;27;20457;-35
2022/03/31 04:25:52;;;;;;;0.20;0.20;;;;;;;20.78;35.32;99478.34;5138765;27;20046;-34
2022/03/31 04:28:18;;;;;;;0.13;0.13;;;;;;;20.79;35.18;99482.72;5138262;27;20051;-33
2022/03/31 04:30:43;;;;;;;0.20;0.20;;;;;;;20.78;35.03;99483.88;5134900;27;20054;-33
2022/03/31 04:33:09;;;;;;;0.20;0.20;;;;;;;20.78;35.24;99483.88;5138540;27;20043;-33
2022/03/31 04:35:36;;;;;;;0.10;0.10;;;;;;;20.78;35.07;99475.56;5139354;27;20039;-36
2022/03/31 04:38:03;;;;;;;0.10;0.10;;;;;;;20.78;35.24;99475.56;5136290;27;20603;-37
2022/03/31 04:40:29;;;;;;;0.10;0.10;;;;;;;20.78;35.26;99478.34;5143084;27;20370;-34
2022/03/31 04:42:54;;;;;;;0.10;0.10;;;;;;;20.78;35.16;99481.09;5138344;27;20074;-33
2022/03/31 04:45:20;;;;;;;0.20;0.20;;;;;;;20.78;35.25;99483.06;5134093;27;20063;-32
2022/03/31 04:47:46;;;;;;;0.20;0.20;;;;;;;20.77;35.10;99473.94;5142839;27;20118;-34
2022/03/31 04:50:12;;;;;;;0.10;0.10;;;;;;;20.77;35.24;99478.66;5134563;27;20576;-37
2022/03/31 04:52:38;;;;;;;0.20;0.20;;;;;;;20.78;35.34;99480.28;5137705;27;20484;-35
2022/03/31 04:55:04;;;;;;;0.20;0.20;;;;;;;20.77;35.30;99478.66;5123503;27;20071;-35
2022/03/31 04:57:30;;;;;;;0.20;0.20;;;;;;;20.76;35.11;99477.81;5136381;27;20054;-33
2022/03/31 04:59:56;;;;;;;0.20;0.20;;;;;;;20.75;35.46;99481.75;5116376;27;20047;-38
2022/03/31 05:02:22;;;;;;;0.10;0.10;;;;;;;20.76;35.12;99477.81;5139586;27;20141;-37
2022/03/31 05:04:47;;;;;;;0.15;0.15;;;;;;;20.76;35.21;99485.31;5137958;27;20039;-32
2022/03/31 05:07:13;;;;;;;0.10;0.10;;;;;;;20.76;35.06;99485.31;5138123;27;20051;-33
2022/03/31 05:09:39;;;;;;;0.10;0.10;;;;;;;20.76;35.35;99482.56;5115815;27;20040;-33
2022/03/31 05:12:06;;;;;;;0.20;0.20;;;;;;;20.76;35.18;99479.78;5137695;27;20370;-34
2022/03/31 05:14:31;;;;;;;0.10;0.10;;;;;;;20.75;35.28;99481.75;5132965;27;20078;-35
2022/03/31 05:16:58;;;;;;;0.20;0.20;;;;;;;20.75;35.42;99481.75;5135076;27;20039;-33
2022/03/31 05:19:24;;;;;;;0.17;0.17;;;;;;;20.76;35.11;99488.09;5133149;27;20145;-33
2022/03/31 05:21:49;;;;;;;0.20;0.20;;;;;;;20.75;35.37;99484.50;5133997;27;20074;-34
2022/03/31 05:24:15;;;;;;;0.10;0.10;;;;;;;20.74;35.28;99480.13;5119063;27;20066;-39
2022/03/31 05:26:42;;;;;;;0.10;0.10;;;;;;;20.74;35.18;99473.78;5134306;27;20050;-37
2022/03/31 05:29:08;;;;;;;0.10;0.10;;;;;;;20.75;35.10;99480.94;5131851;27;20138;-39
2022/03/31 05:31:33;;;;;;;0.20;0.20;;;;;;;20.74;35.25;99482.06;5138573;27;20086;-33
2022/03/31 05:33:59;;;;;;;0.10;0.10;;;;;;;20.74;34.97;99477.34;5138658;27;20042;-34
2022/03/31 05:36:25;;;;;;;0.10;0.10;;;;;;;20.73;35.16;99477.69;5117007;27;20047;-33
2022/03/31 05:38:50;;;;;;;0.10;0.10;;;;;;;20.73;35.35;99472.16;5139317;27;20035;-37
2022/03/31 05:41:16;;;;;;;0.10;0.10;;;;;;;20.73;35.43;99480.47;5128689;27;20095;-35
2022/03/31 05:43:42;;;;;;;0.13;0.13;;;;;;;20.49;33.52;99472.63;5138798;27;20083;-33
2022/03/31 05:46:07;;;;;;;0.20;0.20;;;;;;;20.51;34.42;99478.66;5135354;27;20095;-33
2022/03/31 05:48:33;;;;;;;0.20;0.20;;;;;;;20.65;34.38;99482.09;5129876;27;20038;-34
2022/03/31 05:50:59;;;;;;;0.20;0.20;;;;;;;20.67;34.78;99482.56;5132086;27;20057;-34
2022/03/31 05:53:24;;;;;;;0.20;0.20;;;;;;;20.69;34.84;99476.72;5129358;27;20044;-34
2022/03/31 05:55:50;;;;;;;0.10;0.10;;;;;;;20.70;34.96;99470.84;5123166;27;20230;-34
2022/03/31 05:58:16;;;;;;;0.10;0.10;;;;;;;20.71;34.57;99479.97;5132723;27;20055;-34
2022/03/31 06:00:41;;;;;;;0.10;0.10;;;;;;;20.71;34.71;99480.75;5127001;27;20047;-34
2022/03/31 06:03:07;;;;;;;0.10;0.10;;;;;;;20.73;34.89;99478.50;5125565;27;20047;-36
2022/03/31 06:05:33;;;;;;;0.20;0.20;;;;;;;20.74;35.05;99482.88;5138769;27;20034;-34
2022/03/31 06:07:59;;;;;;;0.10;0.10;;;;;;;20.75;35.05;99480.94;5131253;27;20092;-34
2022/03/31 06:10:25;;;;;;;0.20;0.20;;;;;;;20.75;34.73;99478.97;5133809;27;20054;-33
2022/03/31 06:12:50;;;;;;;0.20;0.20;;;;;;;20.75;34.79;99476.22;5133096;27;20057;-35
2022/03/31 06:15:17;;;;;;;0.20;0.20;;;;;;;20.75;34.95;99484.50;5129664;27;20466;-36
2022/03/31 06:17:43;;;;;;;0.20;0.20;;;;;;;20.76;34.97;99477.00;5114437;27;20043;-35
2022/03/31 06:20:11;;;;;;;0.20;0.20;;;;;;;20.77;34.63;99479.47;5131677;27;20145;-36
2022/03/31 06:22:37;;;;;;;0.10;0.10;;;;;;;20.77;34.68;99476.72;5116305;27;20455;-34
2022/03/31 06:25:10;;;;;;;0.10;0.10;;;;;;;20.79;34.60;99481.91;5118865;27;20046;-35
2022/03/31 06:27:37;;;;;;;0.10;0.10;;;;;;;20.79;34.86;99482.72;5133734;27;20167;-34
2022/03/31 06:30:04;;;;;;;0.10;0.10;;;;;;;20.79;34.68;99487.44;5114368;27;20490;-32
2022/03/31 06:32:29;;;;;;;0.10;0.10;;;;;;;20.81;34.61;99476.84;5138124;27;20042;-37
2022/03/31 06:34:55;;;;;;;0.10;0.10;;;;;;;20.81;34.84;99474.06;5131677;27;20051;-34
2022/03/31 06:37:21;;;;;;;0.10;0.10;;;;;;;20.82;34.77;99480.44;5131116;27;20047;-33
2022/03/31 06:39:46;;;;;;;0.10;0.10;;;;;;;20.83;34.75;99485.66;5115889;27;20058;-35
2022/03/31 06:42:12;;;;;;;0.20;0.20;;;;;;;20.84;34.64;99492.00;5134476;27;20051;-36
2022/03/31 06:44:38;;;;;;;0.10;0.10;;;;;;;20.85;34.75;99490.84;5133522;27;20466;-35
2022/03/31 06:47:05;;;;;;;0.10;0.10;;;;;;;20.85;34.56;99488.88;5137223;27;20066;-33
2022/03/31 06:49:31;;;;;;;0.20;0.20;;;;;;;20.86;34.46;99492.50;5115595;27;20058;-34
2022/03/31 06:51:57;;;;;;;0.10;0.10;;;;;;;20.86;34.84;99486.97;5135176;27;20069;-36
2022/03/31 06:54:22;;;;;;;0.15;0.15;;;;;;;20.86;34.80;99490.53;5131096;27;20478;-33
2022/03/31 06:56:49;;;;;;;0.20;0.20;;;;;;;20.87;34.64;99485.81;5129437;27;20118;-33
2022/03/31 06:59:14;;;;;;;0.10;0.10;;;;;;;20.87;34.98;99480.28;5128780;27;20195;-34
2022/03/31 07:01:40;;;;;;;0.20;0.20;;;;;;;20.87;34.84;99485.81;5136350;27;20050;-34
2022/03/31 07:04:07;;;;;;;0.20;0.20;;;;;;;20.87;34.74;99480.28;5123064;27;20065;-37
2022/03/31 07:06:34;;;;;;;0.10;0.10;;;;;;;20.87;34.84;99483.03;5129419;27;20070;-35
2022/03/31 07:08:59;;;;;;;0.20;0.20;;;;;;;20.87;34.74;99477.50;5110242;27;20549;-35
2022/03/31 07:11:25;;;;;;;0.10;0.10;;;;;;;20.86;34.80;99482.25;5126709;27;20095;-34
2022/03/31 07:13:52;;;;;;;0.10;0.10;;;;;;;20.86;34.87;99470.34;5128674;27;20473;-37
2022/03/31 07:16:18;;;;;;;0.20;0.20;;;;;;;20.86;34.91;99473.94;5133464;27;20164;-36
2022/03/31 07:18:44;;;;;;;0.10;0.10;;;;;;;20.87;35.05;99474.75;5133858;27;20139;-36
2022/03/31 07:21:10;;;;;;;0.15;0.15;;;;;;;20.86;34.88;99478.66;5134092;27;20463;-36
2022/03/31 07:23:36;;;;;;;0.20;0.20;;;;;;;20.85;34.77;99479.78;5144760;27;20038;-37
2022/03/31 07:26:03;;;;;;;0.10;0.10;;;;;;;20.86;35.21;99482.25;5137759;27;20528;-32
2022/03/31 07:28:28;;;;;;;0.10;0.10;;;;;;;20.85;34.78;99477.81;5122826;27;20092;-35
2022/03/31 07:30:54;;;;;;;0.15;0.15;;;;;;;20.85;34.93;99475.06;5142471;27;20050;-32
2022/03/31 07:33:20;;;;;;;0.20;0.20;;;;;;;20.86;35.06;99478.66;5135979;27;20044;-34
2022/03/31 07:35:48;;;;;;;0.20;0.20;;;;;;;20.85;34.92;99477.81;5117818;27;20053;-33
2022/03/31 07:38:16;;;;;;;0.20;0.20;;;;;;;20.85;34.65;99474.25;5114417;27;20062;-37
2022/03/31 07:40:42;;;;;;;0.17;0.17;;;;;;;20.84;34.90;99478.97;5119767;27;20170;-34
2022/03/31 07:43:08;;;;;;;0.20;0.20;;;;;;;20.84;34.71;99467.91;5115634;27;20259;-36
2022/03/31 07:45:35;;;;;;;0.10;0.10;;;;;;;20.84;34.90;99478.16;5116548;27;20401;-34
2022/03/31 07:48:02;;;;;;;0.10;0.10;;;;;;;20.84;34.95;99476.19;5083896;27;20103;-34
2022/03/31 07:50:28;;;;;;;0.20;0.20;;;;;;;20.51;34.75;99470.38;5116296;27;20133;-36
2022/03/31 07:52:53;;;;;;;0.13;0.13;;;;;;;20.73;34.77;99475.72;5118970;27;20196;-35
2022/03/31 07:55:19;;;;;;;0.10;0.10;;;;;;;20.78;34.63;99474.75;5139794;27;20035;-34
2022/03/31 07:57:45;;;;;;;0.20;0.20;;;;;;;20.80;34.48;99476.03;5119114;27;20054;-36
2022/03/31 08:00:13;;;;;;;0.10;0.10;;;;;;;20.81;34.76;99468.53;5115768;27;20074;-36
2022/03/31 08:02:41;;;;;;;0.20;0.20;;;;;;;20.82;34.84;99463.84;5133953;27;20080;-33
2022/03/31 08:05:07;;;;;;;;;;;;;;;20.84;34.58;99472.63;5117839;27;20117;-36
2022/03/31 08:07:34;;;;;;;0.20;0.20;;;;;;;20.81;34.86;99471.31;5130679;27;19930;-38
2022/03/31 08:10:00;;;;;;;0.20;0.20;;;;;;;20.83;34.51;99466.28;5132631;27;20043;-36
2022/03/31 08:12:25;;;;;;;0.20;0.20;;;;;;;20.84;34.58;99469.84;5130151;27;20414;-35
2022/03/31 08:14:51;;;;;;;0.20;0.20;;;;;;;20.85;34.74;99471.47;5127157;27;20106;-35
2022/03/31 08:17:17;;;;;;;0.20;0.20;;;;;;;20.85;34.79;99464.00;5126771;27;20043;-36
2022/03/31 08:19:43;;;;;;;0.20;0.20;;;;;;;20.86;34.81;99465.63;5129242;27;20062;-34
2022/03/31 08:22:09;;;;;;;1.65;0.20;;;;;;;20.86;34.51;99468.41;5133136;27;20591;-35
2022/03/31 08:24:35;;;;;;;0.20;0.20;;;;;;;20.87;34.72;99470.03;5113071;28;20439;-34
2022/03/31 08:27:00;;;;;;;0.20;0.20;;;;;;;20.88;34.78;99474.41;5132168;27;20051;-36
2022/03/31 08:29:26;;;;;;;0.20;0.20;;;;;;;20.89;34.51;99481.56;5135140;27;20481;-35
2022/03/31 08:31:53;;;;;;;0.20;0.20;;;;;;;20.90;34.58;99476.88;5134951;27;20059;-33
2022/03/31 08:34:19;;;;;;;0.20;0.20;;;;;;;20.90;34.78;99485.16;5099805;27;20065;-35
2022/03/31 08:36:44;;;;;;;0.13;0.13;;;;;;;20.90;34.61;99477.69;5131752;27;20289;-35
2022/03/31 08:39:10;;;;;;;0.20;0.20;;;;;;;20.90;34.57;99474.91;5134845;27;20039;-35
2022/03/31 08:41:36;;;;;;;0.30;0.30;;;;;;;20.92;34.70;99477.34;5116249;27;20477;-33
2022/03/31 08:44:02;;;;;;;0.20;0.20;;;;;;;20.92;34.74;99475.38;5137256;27;20133;-36
2022/03/31 08:46:34;;;;;;;0.20;0.20;;;;;;;20.94;34.53;99472.28;5120370;27;20066;-33
2022/03/31 08:49:00;;;;;;;0.20;0.20;;;;;;;20.93;34.82;99476.19;5113785;27;20042;-37
2022/03/31 08:51:27;;;;;;;0.20;0.20;;;;;;;20.94;34.76;99480.56;5116536;27;20162;-36
2022/03/31 08:53:53;;;;;;;0.10;0.10;;;;;;;20.95;34.63;99482.22;5134286;27;20122;-35
2022/03/31 08:56:18;;;;;;;0.10;0.10;;;;;;;20.94;34.74;99477.81;5129960;27;20070;-35
2022/03/31 08:58:45;;;;;;;0.30;0.30;;;;;;;20.95;34.82;99485.00;5133273;27;20043;-34
2022/03/31 09:01:13;;;;;;;0.20;0.20;;;;;;;20.96;34.84;99486.63;5116379;27;20261;-34
2022/03/31 09:03:39;;;;;;;0.10;0.10;;;;;;;20.95;34.68;99483.03;5098188;27;20062;-34
2022/03/31 09:06:07;;;;;;;0.10;0.10;;;;;;;20.95;34.85;99480.28;5134064;27;20050;-34
2022/03/31 09:08:32;;;;;;;0.10;0.10;;;;;;;20.94;34.73;99484.19;5117269;27;20115;-33
2022/03/31 09:11:00;;;;;;;0.17;0.17;;;;;;;20.94;34.77;99492.50;5129671;27;20045;-33
2022/03/31 09:13:36;;;;;;;0.20;0.20;;;;;;;20.95;34.92;99490.53;5131399;27;20130;-36
2022/03/31 09:16:04;;;;;;;0.10;0.10;;;;;;;20.94;34.94;99484.19;5132373;27;20034;-35
2022/03/31 09:18:31;;;;;;;0.20;0.20;;;;;;;20.94;34.85;99486.94;5115696;27;20135;-36
2022/03/31 09:20:59;;;;;;;0.10;0.10;;;;;;;20.94;34.65;99486.94;5131856;27;20074;-36
2022/03/31 09:23:26;;;;;;;0.10;0.10;;;;;;;20.94;34.95;99486.94;5117128;27;20138;-35
2022/03/31 09:25:53;;;;;;;0.20;0.20;;;;;;;20.94;34.78;99486.13;5118549;27;20035;-33
2022/03/31 09:28:22;;;;;;;0.20;0.20;;;;;;;20.93;34.91;99481.72;5137631;27;20062;-36
2022/03/31 09:30:53;;;;;;;0.20;0.20;;;;;;;20.94;34.91;99486.13;5114896;27;20138;-33
2022/03/31 09:33:32;;;;;;;0.20;0.20;;;;;;;20.93;34.91;99493.59;5097667;27;20066;-37
2022/03/31 09:36:00;;;;;;;0.10;0.10;;;;;;;20.92;35.02;99489.22;5129396;27;20058;-35
2022/03/31 09:38:27;;;;;;;0.10;0.10;;;;;;;20.92;35.03;99482.88;5117444;27;20083;-36
2022/03/31 09:40:53;;;;;;;0.20;0.20;;;;;;;20.92;35.07;99485.63;5109415;27;20127;-35
2022/03/31 09:43:19;;;;;;;0.20;0.20;;;;;;;20.93;34.98;99490.03;5122457;27;20168;-36
2022/03/31 09:45:45;;;;;;;0.10;0.10;;;;;;;20.92;34.99;99488.41;5137035;27;20412;-35
2022/03/31 09:48:20;;;;;;;0.20;0.20;;;;;;;20.76;36.08;99486.13;5141390;27;20043;-34
2022/03/31 09:50:47;;;;;;;0.20;0.20;;;;;;;20.86;35.42;99492.50;5100174;27;21672;-36
2022/03/31 09:53:13;;;;;;;0.20;0.20;;;;;;;20.91;35.46;99492.31;5110626;27;20105;-35
2022/03/31 09:55:44;;;;;;;0.15;0.15;;;;;;;20.91;35.57;99484.03;5105034;27;20143;-39
2022/03/31 09:58:14;;;;;;;0.20;0.20;;;;;;;20.93;35.42;99487.25;5119824;27;20121;-37
2022/03/31 10:00:40;;;;;;;0.20;0.20;;;;;;;20.92;35.33;99492.00;5137296;27;20145;-37
2022/03/31 10:03:06;;;;;;;0.10;0.10;;;;;;;20.93;35.40;99493.59;5130736;27;20477;-34
2022/03/31 10:05:39;;;;;;;0.10;0.10;;;;;;;20.93;35.26;99493.59;5133587;27;20434;-34
2022/03/31 10:08:08;;;;;;;0.20;0.20;;;;;;;20.93;35.49;99496.38;5132634;27;20096;-38
2022/03/31 10:10:34;;;;;;;0.17;0.17;;;;;;;20.94;35.35;99498.03;5133116;27;20142;-33
2022/03/31 10:13:07;;;;;;;0.20;0.20;;;;;;;20.94;35.09;99494.41;5135551;27;20047;-34
2022/03/31 10:15:35;;;;;;;0.20;0.20;;;;;;;20.94;35.17;99497.19;5143037;27;20208;-34
2022/03/31 10:18:00;;;;;;;0.20;0.20;;;;;;;20.95;35.14;99490.53;5133004;27;20515;-35
2022/03/31 10:20:26;;;;;;;0.10;0.10;;;;;;;20.96;35.12;99492.97;5135015;27;20038;-39
2022/03/31 10:25:42;;;;;;;0.20;0.20;;;;;;;20.97;35.13;99489.03;5118976;27;20141;-35
2022/03/31 10:28:24;;;;;;;0.20;0.20;;;;;;;20.98;35.32;99482.38;5109210;27;20086;-38
2022/03/31 10:31:00;;;;;;;0.20;0.20;;;;;;;21.03;34.96;99486.94;5132886;27;20147;-33
2022/03/31 10:33:31;;;;;;;0.10;0.10;;;;;;;21.01;35.06;99484.47;5093189;27;20082;-39
2022/03/31 10:36:10;;;;;;;0.20;0.20;;;;;;;21.02;35.23;99485.28;5129613;27;20084;-33
2022/03/31 10:38:38;;;;;;;0.20;0.20;;;;;;;21.01;35.14;99484.47;5116541;27;20046;-36
2022/03/31 10:41:08;;;;;;;0.10;0.10;;;;;;;21.03;35.28;99484.16;5133929;27;20043;-37
2022/03/31 10:43:39;;;;;;;0.15;0.15;;;;;;;21.03;35.30;99481.41;5128354;27;20389;-34
2022/03/31 10:46:20;;;;;;;0.20;0.20;;;;;;;21.04;35.27;99480.25;5101333;27;20074;-37
2022/03/31 10:48:58;;;;;;;0.10;0.10;;;;;;;21.04;35.21;99480.25;5115606;27;20051;-37
2022/03/31 10:51:32;;;;;;;0.10;0.10;;;;;;;21.03;35.18;99476.69;5129958;27;20078;-36
2022/03/31 10:53:58;;;;;;;0.20;0.20;;;;;;;21.04;34.94;99478.31;5132673;27;20122;-35
2022/03/31 10:56:26;;;;;;;0.22;0.22;;;;;;;21.04;35.01;99472.75;5131877;27;20042;-37
2022/03/31 10:58:53;;;;;;;0.20;0.20;;;;;;;21.04;35.13;99467.22;5136900;27;20142;-33
2022/03/31 11:01:20;;;;;;;0.20;0.20;;;;;;;21.05;35.04;99477.16;5117864;27;20134;-35
2022/03/31 11:03:47;;;;;;;0.10;0.10;;;;;;;21.06;34.97;99477.97;5110142;27;20055;-35
2022/03/31 11:06:14;;;;;;;0.20;0.20;;;;;;;21.07;35.16;99468.53;5133930;27;20063;-33
2022/03/31 11:08:44;;;;;;;0.10;0.10;;;;;;;21.07;35.11;99474.06;5120464;27;20134;-33
2022/03/31 11:11:20;;;;;;;0.30;0.30;;;;;;;21.08;34.94;99474.88;5122829;27;20275;-38
2022/03/31 11:13:46;;;;;;;0.17;0.17;;;;;;;21.07;34.97;99476.84;5118105;27;20507;-34
2022/03/31 11:16:15;;;;;;;0.17;0.17;;;;;;;21.08;34.93;99472.13;5120439;27;20070;-33
2022/03/31 11:18:52;;;;;;;0.10;0.10;;;;;;;21.08;35.16;99469.34;5119955;27;20039;-35
2022/03/31 11:21:17;;;;;;;0.10;0.10;;;;;;;21.08;34.92;99470.16;5113650;27;20069;-36
2022/03/31 11:23:46;;;;;;;0.20;0.20;;;;;;;21.08;35.00;99469.34;5133316;27;20123;-37
2022/03/31 11:26:15;;;;;;;0.10;0.10;;;;;;;21.10;35.00;99465.09;5110922;27;20070;-37
2022/03/31 11:28:41;;;;;;;0.20;0.20;;;;;;;21.10;35.17;99472.59;5120029;27;20132;-34
2022/03/31 11:31:14;;;;;;;0.10;0.10;;;;;;;21.10;35.16;99467.06;5127077;27;20097;-33
2022/03/31 11:33:39;;;;;;;0.20;0.20;;;;;;;21.09;34.98;99466.25;5127174;27;20039;-32
2022/03/31 11:36:05;;;;;;;0.20;0.20;;;;;;;21.09;34.98;99463.47;5127276;27;20055;-35
2022/03/31 11:38:31;;;;;;;0.10;0.10;;;;;;;21.10;35.23;99453.22;5127561;27;20305;-33
2022/03/31 11:40:57;;;;;;;0.10;0.10;;;;;;;21.11;35.16;99460.38;5128418;27;20125;-34